Accueil
METAR-TAF:

METAR-TAF

Aéroports :

Aéroport de Florence-Peretola

Florence, Italie

latitude: 43-48N, longitude: 011-12E, altitude: 40 m

Observation

Le bulletin a été fait il y a 38 minutes, à 11:20 UTC
Vent 6 kt de ouest, variant entre sud-ouest et nord/nord-ouest
Température 27°C
Humidité 32%
Pression 1013 hPa
Visibilité 10 km ou plus
Quelques nuages à une hauteur de 6000 ft

METAR: LIRQ 021120Z 28006KT 230V330 9999 FEW060 27/09 Q1013

Heure: 13:58 (11:58 UTC)

Prévision

Le bulletin a été fait il y a 58 minutes, à 11:00 UTC
Prévision valable du 02 à 12 UTC au 03 à 12 UTC
Vent 5 kt de direction variable
Visibilité 10 km ou plus
Quelques nuages à une hauteur de 3000 ft
Temporairement
du 02 à 12 UTC au 02 à 16 UTC
pluie

TAF: LIRQ 021100Z 0212/0312 VRB05KT 9999 FEW030 TEMPO 0212/0216 RA

Observations et prévisions météorologiques de plus de 4000 aéroports (messages METAR et TAF).

Les stations disponibles sont représentées par des disques jaunes et rouges sur la carte.

Passer la souris dessus pour voir le nom de la station.

Cliquer dessus pour voir les observations et prévisions météorologiques.

Pour changer de carte: cliquez sur les boutons verts avec une croix noire pour zoomer, sur le bouton vert avec un tiret pour effectuer un zoom arrière, ou sur les flèches vertes pour les cartes adjacentes.


METAR-TAF: